»·PEaware :: SWA6820 KLAS-KBUR

SWA6820 :: KLAS-KBUR

FLIGHT INFORMATION

Flight Status: Arrived
Operator:
Southwest Airlines
More flights by this operator :: More flights under this callsign
Pilot: Skye D. (10623)
Aircraft: BOEING 737-700
(B737)
More flights by this aircraft type
Origin: KLAS McCarran Intl
United States
Destination: KBUR Bob Hope-Burbank
United States
More flights between these airports :: More routes between these airports
Route: +BOACH8 HEC LYNXX8
File this flight plan on PilotEdge
Remarks:
Altitude:
(Current/Filed)
24,000ft
Speed:
(Current/Filed)
438kts
Departed: 10-Feb-18 12:03 PM
Arrived: 10-Feb-18 01:13 PM
Distance/Time
Traveled:
193nm/1:09
Distance/Time
To Go:
Arrived

Flight Plot

Page will automatically refresh every two minutes.

Flight plan parsing failed; only flown route is shown


Map Options




Map Legend


Flown Route
Filed Route
Departure Airport
Arrival Airport
Navaid (VOR, NDB)
Fix

Horizontal Profiles

Position Reports

Time Latitude Longitude Heading Altitude Ground
Speed
10-Feb-18 11:34 36.080932 -115.146020 254 2150ft 0kts
10-Feb-18 11:35 36.080932 -115.146020 254 2150ft 0kts
10-Feb-18 11:36 36.080932 -115.146020 254 2150ft 0kts
10-Feb-18 11:37 36.080932 -115.146020 254 2150ft 0kts
10-Feb-18 11:38 36.080932 -115.146020 254 2150ft 0kts
10-Feb-18 11:39 36.080932 -115.146020 254 2150ft 0kts
10-Feb-18 11:40 36.080932 -115.146020 254 2150ft 0kts
10-Feb-18 11:41 36.080932 -115.146020 254 2150ft 0kts
10-Feb-18 11:42 36.080932 -115.146020 254 2150ft 0kts
10-Feb-18 11:43 36.080932 -115.146020 254 2150ft 0kts
10-Feb-18 11:44 36.080932 -115.146020 254 2150ft 0kts
10-Feb-18 11:45 36.080932 -115.146020 254 2150ft 0kts
10-Feb-18 11:46 36.080932 -115.146020 254 2150ft 0kts
10-Feb-18 11:47 36.080932 -115.146020 254 2150ft 0kts
10-Feb-18 11:48 36.080932 -115.146020 254 2150ft 0kts
10-Feb-18 11:49 36.080932 -115.146020 254 2150ft 0kts
10-Feb-18 11:50 36.080932 -115.146020 254 2150ft 0kts
10-Feb-18 11:51 36.080932 -115.146020 254 2150ft 0kts
10-Feb-18 11:52 36.080994 -115.145749 254 2150ft 2kts
10-Feb-18 11:53 36.081296 -115.145322 190 2150ft 2kts
10-Feb-18 11:54 36.081582 -115.145389 153 2150ft 0kts
10-Feb-18 11:55 36.081582 -115.145389 153 2150ft 0kts
10-Feb-18 11:56 36.079151 -115.144871 180 2150ft 0kts
10-Feb-18 11:57 36.078945 -115.144871 179 2150ft 0kts
10-Feb-18 11:58 36.078900 -115.144871 179 2150ft 0kts
10-Feb-18 11:59 36.078857 -115.144871 179 2150ft 0kts
10-Feb-18 12:00 36.078812 -115.144871 179 2150ft 0kts
10-Feb-18 12:01 36.078765 -115.144870 178 2150ft 0kts
10-Feb-18 12:02 36.078719 -115.144870 178 2150ft 0kts
10-Feb-18 12:03 36.078253 -115.142521 93 2150ft 24kts
10-Feb-18 12:04 36.078258 -115.135221 88 2150ft 22kts
10-Feb-18 12:05 36.078233 -115.126946 90 2150ft 28kts
10-Feb-18 12:06 36.077525 -115.121643 130 2150ft 8kts
10-Feb-18 12:07 36.077368 -115.121411 130 2150ft 0kts
10-Feb-18 12:08 36.077349 -115.121385 132 2150ft 0kts
10-Feb-18 12:09 36.076921 -115.121362 183 2150ft 10kts
10-Feb-18 12:10 36.076394 -115.130526 269 2150ft 124kts
10-Feb-18 12:11 36.077267 -115.173290 270 4399ft 159kts
10-Feb-18 12:12 36.076688 -115.224529 268 6600ft 209kts
10-Feb-18 12:13 36.035028 -115.267846 208 6899ft 256kts
10-Feb-18 12:14 35.967506 -115.297943 191 7905ft 275kts
10-Feb-18 12:15 35.887908 -115.311345 190 10930ft 338kts
10-Feb-18 12:16 35.787390 -115.305777 179 14133ft 388kts
10-Feb-18 12:17 35.683717 -115.304916 210 17831ft 386kts
10-Feb-18 12:18 35.611148 -115.386684 231 18741ft 380kts
10-Feb-18 12:19 35.541222 -115.477449 233 18842ft 375kts
10-Feb-18 12:20 35.472278 -115.570249 233 18859ft 374kts
10-Feb-18 12:21 35.404658 -115.659992 233 19237ft 374kts
10-Feb-18 12:22 35.335853 -115.753882 234 22416ft 395kts
10-Feb-18 12:23 35.264043 -115.850629 233 23729ft 415kts
10-Feb-18 12:24 35.191568 -115.946302 232 23868ft 414kts
10-Feb-18 12:25 35.119592 -116.040913 233 23893ft 412kts
10-Feb-18 12:26 35.051928 -116.129885 233 23898ft 412kts
10-Feb-18 12:27 34.976945 -116.228293 233 23899ft 412kts
10-Feb-18 12:28 34.904982 -116.322429 233 23874ft 412kts
10-Feb-18 12:29 34.833458 -116.414474 232 23864ft 412kts
10-Feb-18 12:30 34.792866 -116.521130 266 23891ft 389kts
10-Feb-18 12:31 34.779285 -116.640838 266 23866ft 389kts
10-Feb-18 12:32 34.767967 -116.753622 267 23863ft 389kts
10-Feb-18 12:33 34.756667 -116.872572 266 23863ft 390kts
10-Feb-18 12:34 34.744531 -116.991532 266 23864ft 394kts
10-Feb-18 12:35 34.732067 -117.111848 266 23901ft 394kts
10-Feb-18 12:35 34.722124 -117.207887 266 22990ft 400kts
10-Feb-18 12:36 34.710149 -117.322361 266 21152ft 385kts
10-Feb-18 12:37 34.699397 -117.424258 266 19552ft 369kts
10-Feb-18 12:38 34.687485 -117.537249 266 17869ft 361kts
10-Feb-18 12:39 34.675570 -117.649519 266 16297ft 354kts
10-Feb-18 12:40 34.665211 -117.750707 266 14984ft 338kts
10-Feb-18 12:42 34.652696 -117.869188 265 13856ft 334kts
10-Feb-18 12:42 34.644249 -117.946127 265 13301ft 332kts
10-Feb-18 12:43 34.634531 -118.034324 265 12920ft 329kts
10-Feb-18 12:44 34.617259 -118.123644 259 11326ft 315kts
10-Feb-18 12:45 34.602011 -118.193348 260 9968ft 278kts
10-Feb-18 12:46 34.587698 -118.258384 260 8961ft 260kts
10-Feb-18 12:47 34.573732 -118.321679 259 8194ft 252kts
10-Feb-18 12:48 34.559702 -118.384405 259 8089ft 255kts
10-Feb-18 12:49 34.545004 -118.449668 259 8012ft 253kts
10-Feb-18 12:50 34.531023 -118.511747 259 8070ft 256kts
10-Feb-18 12:51 34.505115 -118.562186 220 7558ft 274kts
10-Feb-18 12:52 34.459565 -118.601613 221 6794ft 263kts
10-Feb-18 12:53 34.414720 -118.641086 221 6121ft 241kts
10-Feb-18 12:54 34.371157 -118.680199 221 6011ft 236kts
10-Feb-18 12:55 34.335522 -118.721968 267 5892ft 218kts
10-Feb-18 12:56 34.372270 -118.740583 55 4881ft 216kts
10-Feb-18 12:57 34.345470 -118.691515 154 4947ft 221kts
10-Feb-18 12:58 34.303292 -118.673823 161 5075ft 215kts
10-Feb-18 12:59 34.257757 -118.654999 161 4475ft 215kts
10-Feb-18 13:00 34.217669 -118.638945 161 4043ft 188kts
10-Feb-18 13:02 34.201901 -118.607488 90 4040ft 174kts
10-Feb-18 13:03 34.200231 -118.568352 87 4004ft 175kts
10-Feb-18 13:04 34.199900 -118.530504 87 3974ft 158kts
10-Feb-18 13:05 34.199675 -118.494253 85 3985ft 170kts
10-Feb-18 13:06 34.194345 -118.459179 145 3846ft 176kts
10-Feb-18 13:07 34.172847 -118.481552 271 4051ft 176kts
10-Feb-18 13:08 34.171080 -118.528272 271 3985ft 174kts
10-Feb-18 13:09 34.169629 -118.575352 271 3976ft 180kts
10-Feb-18 13:10 34.169535 -118.619737 271 3590ft 183kts
10-Feb-18 13:11 34.189935 -118.631188 89 3380ft 151kts
10-Feb-18 13:12 34.204184 -118.590987 104 3107ft 156kts
10-Feb-18 13:13 34.198990 -118.556206 89 3022ft 170kts
10-Feb-18 13:14 34.199904 -118.512649 93 2976ft 158kts
10-Feb-18 13:15 34.199403 -118.474848 90 2540ft 157kts
10-Feb-18 13:16 34.198902 -118.439441 86 1950ft 134kts
10-Feb-18 13:17 34.198339 -118.411110 87 1515ft 131kts
10-Feb-18 13:18 34.198036 -118.385073 89 1099ft 130kts
10-Feb-18 13:19 34.197839 -118.359780 91 786ft 94kts
10-Feb-18 13:20 34.197657 -118.351750 92 786ft 17kts
10-Feb-18 13:21 34.196889 -118.351065 176 786ft 6kts
10-Feb-18 13:22 34.196793 -118.351061 178 786ft 0kts

Navigation Log

Ident Type
Flight plan parsing failed, navigation log unavailable